Time;durP1;ratioP1;P1;durP2;ratioP2;P2;SDS_P1;SDS_P2;PMS_P1;PMS_P2;Temp;Humidity;BMP_temperature;BMP_pressure;BME280_temperature;BME280_humidity;BME280_pressure;Samples;Min_cycle;Max_cycle;Signal;HPM_P1;HPM_P2
2023/12/10 00:00:07;;;;;;;2.13;1.15;;;;;;;21.09;37.46;98721.38;4566184;27;20047;-58
2023/12/10 00:02:18;;;;;;;3.45;1.30;;;;;;;21.08;37.02;98732.03;4591103;27;21625;-57
2023/12/10 00:04:28;;;;;;;2.75;1.08;;;;;;;21.09;37.10;98739.41;4579751;27;20176;-57
2023/12/10 00:06:39;;;;;;;2.72;1.27;;;;;;;21.09;36.87;98745.13;4587881;27;20032;-58
2023/12/10 00:08:49;;;;;;;2.42;1.10;;;;;;;21.09;37.14;98748.00;4588610;27;20112;-58
2023/12/10 00:10:59;;;;;;;3.13;1.30;;;;;;;21.09;36.79;98747.22;4589217;27;20035;-57
2023/12/10 00:13:10;;;;;;;5.03;1.50;;;;;;;21.09;37.33;98748.00;4588233;27;20044;-57
2023/12/10 00:15:20;;;;;;;3.65;1.23;;;;;;;21.09;36.77;98752.94;4589570;27;20048;-57
2023/12/10 00:17:31;;;;;;;2.70;1.10;;;;;;;21.09;36.85;98755.81;4585651;27;20048;-57
2023/12/10 00:19:41;;;;;;;2.83;1.20;;;;;;;21.10;36.63;98763.16;4587912;27;20028;-57
2023/12/10 00:21:52;;;;;;;2.80;1.02;;;;;;;21.09;36.41;98756.59;4587260;27;20404;-56
2023/12/10 00:24:02;;;;;;;3.85;1.45;;;;;;;21.10;36.29;98763.16;4572379;27;20095;-58
2023/12/10 00:26:13;;;;;;;2.47;1.10;;;;;;;21.09;36.31;98761.53;4588781;27;20063;-57
2023/12/10 00:28:23;;;;;;;3.53;1.30;;;;;;;21.09;36.51;98755.81;4588882;27;20049;-57
2023/12/10 00:30:34;;;;;;;2.90;1.27;;;;;;;21.09;36.31;98768.09;4587708;27;20051;-57
2023/12/10 00:32:45;;;;;;;2.90;1.23;;;;;;;21.09;36.43;98768.09;4588876;27;20036;-57
2023/12/10 00:34:55;;;;;;;3.38;1.40;;;;;;;21.10;36.72;98764.00;4586233;27;20075;-58
2023/12/10 00:37:06;;;;;;;3.28;1.13;;;;;;;21.09;36.89;98768.09;4588533;27;20050;-56
2023/12/10 00:39:16;;;;;;;2.55;1.20;;;;;;;21.10;36.85;98768.91;4586212;27;20181;-57
2023/12/10 00:41:27;;;;;;;3.17;1.10;;;;;;;21.09;36.64;98762.34;4586868;27;20042;-56
2023/12/10 00:43:40;;;;;;;3.00;1.23;;;;;;;21.09;36.82;98773.81;4587933;27;20044;-58
2023/12/10 00:45:52;;;;;;;2.38;1.10;;;;;;;21.09;36.61;98775.91;4587227;27;20901;-56
2023/12/10 00:48:03;;;;;;;3.03;1.20;;;;;;;21.09;36.96;98791.03;4587938;27;20096;-57
2023/12/10 00:50:13;;;;;;;4.05;1.35;;;;;;;21.10;36.17;98783.25;4586406;27;20558;-57
2023/12/10 00:52:24;;;;;;;2.88;1.17;;;;;;;21.10;36.58;98792.69;4586990;27;20051;-56
2023/12/10 00:54:35;;;;;;;3.50;1.38;;;;;;;21.10;36.52;98798.44;4588661;27;20586;-56
2023/12/10 00:56:45;;;;;;;3.15;1.30;;;;;;;21.09;36.32;98793.91;4586555;27;20119;-58
2023/12/10 00:58:56;;;;;;;3.67;1.20;;;;;;;21.08;36.19;98789.41;4586290;27;20040;-57
2023/12/10 01:01:09;;;;;;;3.05;1.10;;;;;;;21.10;36.22;98789.00;4575112;27;20028;-57
2023/12/10 01:03:20;;;;;;;3.70;1.20;;;;;;;21.09;35.87;98791.03;4587756;27;20028;-58
2023/12/10 01:05:30;;;;;;;2.10;1.17;;;;;;;21.09;35.80;98796.78;4587475;27;20040;-57
2023/12/10 01:07:41;;;;;;;3.22;1.17;;;;;;;21.09;35.60;98795.97;4577776;27;20387;-58
2023/12/10 01:09:51;;;;;;;2.90;1.20;;;;;;;21.07;35.41;98787.78;4586744;27;20174;-57
2023/12/10 01:12:03;;;;;;;3.72;1.10;;;;;;;21.10;35.42;98792.69;4587044;27;20594;-58
2023/12/10 01:14:13;;;;;;;3.38;1.15;;;;;;;21.09;35.14;98788.16;4588310;27;20047;-58
2023/12/10 01:16:23;;;;;;;2.63;1.02;;;;;;;21.10;35.22;98798.44;4587819;27;20411;-57
2023/12/10 01:18:37;;;;;;;3.25;1.05;;;;;;;21.10;34.94;98797.59;4587496;27;20029;-58
2023/12/10 01:20:48;;;;;;;3.08;1.13;;;;;;;21.10;35.06;98795.56;4587028;27;20039;-57
2023/12/10 01:22:59;;;;;;;3.03;1.20;;;;;;;21.10;34.77;98801.28;4587352;27;20040;-58
2023/12/10 01:25:12;;;;;;;2.17;1.10;;;;;;;21.09;34.50;98808.25;4587889;27;20047;-57
2023/12/10 01:27:23;;;;;;;3.30;1.10;;;;;;;21.10;34.49;98791.84;4588907;27;20147;-56
2023/12/10 01:29:35;;;;;;;3.33;1.15;;;;;;;21.08;34.40;98806.63;4587675;27;20051;-57
2023/12/10 01:31:46;;;;;;;2.72;1.02;;;;;;;21.08;34.26;98809.50;4571395;27;20925;-57
2023/12/10 01:33:56;;;;;;;3.78;1.20;;;;;;;21.09;34.28;98816.06;4570828;27;20110;-56
2023/12/10 01:36:07;;;;;;;3.80;1.48;;;;;;;21.09;34.37;98818.91;4586796;27;20050;-56
2023/12/10 01:38:18;;;;;;;2.92;1.08;;;;;;;21.09;34.05;98828.31;4588678;27;20382;-58
2023/12/10 01:40:28;;;;;;;3.65;1.25;;;;;;;21.09;34.25;98825.47;4588341;27;20795;-59
2023/12/10 01:42:44;;;;;;;3.05;1.15;;;;;;;21.09;34.05;98825.47;4570608;27;20040;-56
2023/12/10 01:44:54;;;;;;;2.42;1.00;;;;;;;21.09;33.94;98839.78;4587099;27;20046;-57
2023/12/10 01:47:10;;;;;;;2.95;1.10;;;;;;;21.09;34.42;98844.75;4589913;27;20043;-56
2023/12/10 01:49:22;;;;;;;3.05;1.02;;;;;;;21.09;34.02;98841.88;4588868;27;20044;-56
2023/12/10 01:51:33;;;;;;;3.17;1.40;;;;;;;21.08;34.06;98848.81;4585866;27;20674;-58
2023/12/10 01:53:43;;;;;;;3.38;1.30;;;;;;;21.09;33.85;98848.41;4585491;27;20135;-58
2023/12/10 01:55:54;;;;;;;3.75;1.40;;;;;;;21.09;33.79;98854.13;4586067;27;20040;-57
2023/12/10 01:58:04;;;;;;;3.35;1.13;;;;;;;21.09;33.83;98861.94;4587768;27;20055;-58
2023/12/10 02:00:15;;;;;;;3.30;1.30;;;;;;;21.08;33.82;98858.25;4587187;27;20044;-58
2023/12/10 02:02:28;;;;;;;3.42;1.13;;;;;;;21.08;33.36;98861.13;4588287;27;20077;-58
2023/12/10 02:04:40;;;;;;;3.13;1.23;;;;;;;21.08;33.54;98860.28;4587230;27;20044;-56
2023/12/10 02:06:50;;;;;;;2.72;1.20;;;;;;;21.08;33.57;98875.47;4587350;27;20119;-57
2023/12/10 02:09:01;;;;;;;3.42;1.10;;;;;;;21.09;33.34;98871.34;4586719;27;20111;-56
2023/12/10 02:11:11;;;;;;;2.75;1.10;;;;;;;21.07;33.52;98873.84;4587797;27;20380;-58
2023/12/10 02:13:23;;;;;;;4.70;1.50;;;;;;;21.09;33.76;98876.28;4588285;27;21158;-57
2023/12/10 02:15:33;;;;;;;3.60;1.17;;;;;;;21.08;33.72;98880.38;4588450;27;20035;-58
2023/12/10 02:17:47;;;;;;;2.60;1.02;;;;;;;21.07;33.43;98873.84;4586803;27;20058;-58
2023/12/10 02:19:58;;;;;;;3.15;1.15;;;;;;;21.08;33.39;98872.59;4587533;27;20035;-58
2023/12/10 02:22:13;;;;;;;2.40;1.00;;;;;;;21.07;33.70;98878.75;4587637;27;20035;-58
2023/12/10 02:24:35;;;;;;;2.65;1.10;;;;;;;21.07;33.50;98882.44;4587017;27;20043;-57
2023/12/10 02:26:46;;;;;;;3.45;1.35;;;;;;;21.07;33.49;98879.56;4587244;27;20035;-57
2023/12/10 02:28:57;;;;;;;3.85;1.30;;;;;;;21.07;33.79;98881.63;4572410;27;20023;-56
2023/12/10 02:31:08;;;;;;;4.18;1.42;;;;;;;21.07;33.83;98878.75;4572879;27;20043;-57
2023/12/10 02:33:18;;;;;;;3.30;1.38;;;;;;;21.06;33.43;98872.19;4589003;27;20047;-58
2023/12/10 02:35:29;;;;;;;5.03;1.40;;;;;;;21.06;33.67;98883.66;4592188;27;20074;-56
2023/12/10 02:37:39;;;;;;;3.20;1.27;;;;;;;21.06;33.89;98875.06;4589442;27;20135;-57
2023/12/10 02:39:49;;;;;;;3.60;1.40;;;;;;;21.07;33.64;98887.34;4590008;27;20040;-58
2023/12/10 02:42:00;;;;;;;3.22;1.13;;;;;;;21.06;33.78;98889.41;4592724;27;20036;-57
2023/12/10 02:44:11;;;;;;;3.60;1.30;;;;;;;21.06;34.13;98898.00;4590552;27;20119;-57
2023/12/10 02:46:21;;;;;;;2.03;1.10;;;;;;;21.06;33.71;98898.00;4592656;27;20044;-58
2023/12/10 02:48:32;;;;;;;2.70;1.10;;;;;;;21.06;33.50;98900.88;4591072;27;20040;-57
2023/12/10 02:50:42;;;;;;;3.58;1.17;;;;;;;21.07;33.80;98904.56;4590300;27;20508;-57
2023/12/10 02:52:53;;;;;;;3.35;1.27;;;;;;;21.05;33.63;98899.25;4589082;27;20040;-58
2023/12/10 02:55:09;;;;;;;3.42;1.45;;;;;;;21.06;33.92;98900.88;4587395;27;20050;-58
2023/12/10 02:57:19;;;;;;;2.83;1.02;;;;;;;21.06;33.80;98911.53;4589804;27;20126;-58
2023/12/10 02:59:29;;;;;;;2.53;1.10;;;;;;;21.05;33.68;98922.19;4573062;27;20726;-58
2023/12/10 03:01:40;;;;;;;2.88;1.30;;;;;;;21.05;33.87;98915.63;4589239;27;20055;-57
2023/12/10 03:03:50;;;;;;;3.50;1.17;;;;;;;21.06;33.88;98920.94;4582136;27;20491;-58
2023/12/10 03:06:01;;;;;;;3.35;1.27;;;;;;;21.05;34.01;98927.94;4588416;27;20071;-57
2023/12/10 03:08:11;;;;;;;3.28;1.40;;;;;;;21.06;33.77;98931.63;4587160;27;20401;-57
2023/12/10 03:10:22;;;;;;;3.00;1.50;;;;;;;21.05;33.92;98933.66;4588691;27;20066;-57
2023/12/10 03:12:32;;;;;;;3.97;1.10;;;;;;;21.07;34.00;98930.38;4589262;27;20561;-58
2023/12/10 03:14:43;;;;;;;2.72;1.20;;;;;;;21.07;33.73;98930.38;4588646;27;20077;-57
2023/12/10 03:16:53;;;;;;;2.30;1.30;;;;;;;21.06;33.99;98941.03;4590571;27;20051;-56
2023/12/10 03:19:04;;;;;;;2.75;0.90;;;;;;;21.06;33.68;98929.56;4587618;27;20412;-56
2023/12/10 03:21:14;;;;;;;2.20;1.17;;;;;;;21.06;33.83;98941.03;4589362;27;20054;-56
2023/12/10 03:23:24;;;;;;;3.45;1.20;;;;;;;21.07;34.05;98950.47;4586952;27;21262;-56
2023/12/10 03:25:35;;;;;;;3.53;1.20;;;;;;;21.08;33.98;98957.84;4588467;27;20044;-57
2023/12/10 03:27:45;;;;;;;2.78;1.00;;;;;;;21.08;34.07;98960.69;4588285;27;20030;-58
2023/12/10 03:29:56;;;;;;;3.05;1.27;;;;;;;21.06;34.28;98958.25;4587817;27;20096;-58
2023/12/10 03:32:06;;;;;;;3.42;1.15;;;;;;;21.07;34.36;98970.53;4588678;27;20110;-57
2023/12/10 03:34:17;;;;;;;2.92;1.13;;;;;;;21.05;34.67;98959.47;4590026;27;20032;-57
2023/12/10 03:36:27;;;;;;;4.35;1.27;;;;;;;21.07;34.53;98959.06;4587945;27;20446;-58
2023/12/10 03:38:38;;;;;;;2.97;1.02;;;;;;;21.06;34.93;98958.25;4588310;27;20393;-58
2023/12/10 03:40:48;;;;;;;2.47;1.17;;;;;;;21.07;34.91;98959.06;4572331;27;20027;-56
2023/12/10 03:42:58;;;;;;;3.65;1.10;;;;;;;21.07;34.58;98965.63;4587399;27;20515;-58
2023/12/10 03:45:09;;;;;;;3.10;1.20;;;;;;;21.06;34.53;98963.97;4587787;27;20074;-58
2023/12/10 03:47:20;;;;;;;3.92;1.25;;;;;;;21.07;34.90;98953.34;4587902;27;20040;-57
2023/12/10 03:49:30;;;;;;;2.65;1.20;;;;;;;21.05;35.00;98959.47;4586774;27;20036;-57
2023/12/10 03:51:41;;;;;;;3.38;1.08;;;;;;;21.07;34.89;98965.63;4587025;27;20115;-58
2023/12/10 03:53:51;;;;;;;2.28;1.00;;;;;;;21.06;34.67;98963.19;4589110;27;20461;-57
2023/12/10 03:56:02;;;;;;;2.50;0.90;;;;;;;21.06;35.00;98966.84;4570581;27;20051;-56
2023/12/10 03:58:12;;;;;;;2.80;1.00;;;;;;;21.06;34.98;98969.72;4591296;27;20408;-58
2023/12/10 04:00:23;;;;;;;2.63;0.93;;;;;;;21.06;34.50;98969.72;4586914;27;20047;-57
2023/12/10 04:02:33;;;;;;;3.30;1.10;;;;;;;21.07;34.76;98968.50;4587480;27;20024;-58
2023/12/10 04:04:43;;;;;;;2.40;1.08;;;;;;;21.07;34.92;98982.84;4589500;27;20125;-58
2023/12/10 04:06:54;;;;;;;3.17;1.00;;;;;;;21.06;34.36;98977.53;4575158;27;20043;-57
2023/12/10 04:09:05;;;;;;;2.85;1.20;;;;;;;21.06;34.52;98975.44;4587478;27;20047;-56
2023/12/10 04:11:25;;;;;;;2.45;0.90;;;;;;;21.06;34.45;98980.38;4587455;27;20043;-58
2023/12/10 04:13:36;;;;;;;3.15;1.08;;;;;;;21.06;34.51;98986.94;4585819;27;20034;-57
2023/12/10 04:15:46;;;;;;;3.10;0.90;;;;;;;21.05;34.59;98988.16;4587267;27;20043;-57
2023/12/10 04:17:57;;;;;;;3.15;1.00;;;;;;;21.06;34.42;98991.88;4586952;27;20122;-58
2023/12/10 04:20:08;;;;;;;2.78;1.00;;;;;;;21.06;34.29;98995.53;4586632;27;20038;-58
2023/12/10 04:22:18;;;;;;;3.97;1.08;;;;;;;21.06;34.15;99007.00;4586990;27;20143;-58
2023/12/10 04:24:29;;;;;;;2.60;1.00;;;;;;;21.06;34.46;99003.34;4586302;27;20404;-57
2023/12/10 04:26:39;;;;;;;2.15;1.15;;;;;;;21.05;34.37;99019.72;4588497;27;20047;-57
2023/12/10 04:28:50;;;;;;;3.22;1.00;;;;;;;21.06;34.42;99017.69;4586490;27;20058;-58
2023/12/10 04:31:01;;;;;;;1.95;0.90;;;;;;;21.05;34.52;99013.16;4586434;27;20045;-58
2023/12/10 04:33:11;;;;;;;2.70;1.15;;;;;;;21.04;34.37;99015.19;4588385;27;20033;-57
2023/12/10 04:35:22;;;;;;;2.30;0.85;;;;;;;21.05;34.64;99021.75;4587636;27;20551;-57
2023/12/10 04:37:32;;;;;;;2.63;1.10;;;;;;;21.05;34.60;99019.72;4588623;27;20032;-57
2023/12/10 04:39:42;;;;;;;2.38;0.90;;;;;;;21.03;34.88;99027.91;4587052;27;20048;-57
2023/12/10 04:41:53;;;;;;;3.05;1.10;;;;;;;21.05;34.66;99034.06;4587376;27;20062;-57
2023/12/10 04:44:04;;;;;;;2.38;1.15;;;;;;;21.04;34.69;99028.75;4585428;27;20028;-57
2023/12/10 04:46:16;;;;;;;2.40;0.90;;;;;;;21.05;34.95;99036.94;4585634;27;20060;-57
2023/12/10 04:48:27;;;;;;;2.63;0.90;;;;;;;21.04;34.96;99031.59;4586402;27;20094;-57
2023/12/10 04:50:38;;;;;;;2.67;1.10;;;;;;;21.05;34.62;99038.97;4586850;27;20129;-57
2023/12/10 04:52:48;;;;;;;2.95;0.98;;;;;;;21.05;35.25;99036.09;4585558;27;20032;-58
2023/12/10 04:54:59;;;;;;;1.60;0.70;;;;;;;21.05;34.77;99034.06;4588684;27;20036;-58
2023/12/10 04:57:10;;;;;;;1.20;0.75;;;;;;;21.04;35.38;99029.53;4577319;27;20032;-58
2023/12/10 04:59:20;;;;;;;3.33;1.00;;;;;;;21.03;34.71;99033.66;4588510;27;20606;-58
2023/12/10 05:01:31;;;;;;;1.42;0.70;;;;;;;21.04;35.00;99041.00;4586411;27;20086;-58
2023/12/10 05:03:41;;;;;;;1.40;0.80;;;;;;;21.04;34.79;99041.00;4587117;27;20094;-57
2023/12/10 05:05:52;;;;;;;1.80;0.88;;;;;;;21.04;34.76;99043.88;4587995;27;20101;-56
2023/12/10 05:08:03;;;;;;;1.25;0.60;;;;;;;21.03;35.04;99045.13;4588051;27;20476;-58
2023/12/10 05:10:13;;;;;;;2.20;0.70;;;;;;;21.04;35.09;99052.47;4587376;27;20067;-56
2023/12/10 05:12:24;;;;;;;2.25;1.00;;;;;;;21.04;35.08;99057.41;4586591;27;20109;-56
2023/12/10 05:14:34;;;;;;;2.05;0.73;;;;;;;21.04;35.15;99060.28;4587366;27;20032;-57
2023/12/10 05:16:44;;;;;;;1.88;0.80;;;;;;;21.04;34.79;99069.69;4586614;27;20043;-56
2023/12/10 05:18:55;;;;;;;1.95;0.70;;;;;;;21.05;35.09;99065.63;4588573;27;20209;-56
2023/12/10 05:21:06;;;;;;;2.50;0.60;;;;;;;21.04;35.16;99058.22;4586420;27;20434;-57
2023/12/10 05:23:16;;;;;;;2.47;0.90;;;;;;;21.03;35.15;99062.31;4587013;27;20042;-57
2023/12/10 05:25:30;;;;;;;0.90;0.50;;;;;;;21.04;35.07;99063.16;4588529;27;20173;-58
2023/12/10 05:27:41;;;;;;;1.45;0.70;;;;;;;21.04;34.70;99063.97;4584709;27;20044;-58
2023/12/10 05:29:51;;;;;;;1.67;0.70;;;;;;;21.04;34.91;99052.47;4587197;27;20036;-58
2023/12/10 05:32:02;;;;;;;2.28;1.00;;;;;;;21.03;35.07;99053.72;4576393;27;20036;-56
2023/12/10 05:34:12;;;;;;;2.33;0.80;;;;;;;21.04;34.82;99046.75;4590753;27;20048;-56
2023/12/10 05:36:23;;;;;;;1.55;0.70;;;;;;;21.03;35.23;99050.84;4586988;27;20097;-58
2023/12/10 05:38:33;;;;;;;2.10;0.82;;;;;;;21.04;34.74;99043.88;4586449;27;20040;-58
2023/12/10 05:40:44;;;;;;;1.60;0.70;;;;;;;21.04;34.86;99060.28;4586740;27;20078;-58
2023/12/10 05:42:54;;;;;;;2.10;0.80;;;;;;;21.04;34.90;99063.97;4586788;27;20028;-58
2023/12/10 05:45:05;;;;;;;1.38;0.70;;;;;;;21.04;34.95;99060.28;4587433;27;20074;-57
2023/12/10 05:47:16;;;;;;;2.10;0.77;;;;;;;21.03;34.69;99050.84;4586962;27;20032;-56
2023/12/10 05:49:26;;;;;;;1.60;0.80;;;;;;;21.04;35.08;99057.41;4588295;27;20119;-57
2023/12/10 05:51:37;;;;;;;1.55;0.50;;;;;;;21.03;35.20;99059.47;4585429;27;20077;-56
2023/12/10 05:53:47;;;;;;;1.52;0.73;;;;;;;21.03;35.02;99056.59;4586617;27;20077;-56
2023/12/10 05:55:57;;;;;;;1.70;0.70;;;;;;;21.05;34.79;99062.75;4588128;27;20039;-57
2023/12/10 05:58:08;;;;;;;1.23;0.70;;;;;;;21.03;35.03;99059.47;4587031;27;20093;-56
2023/12/10 06:00:18;;;;;;;2.00;0.70;;;;;;;21.04;34.77;99063.97;4588751;27;20449;-57
2023/12/10 06:02:30;;;;;;;2.63;0.90;;;;;;;21.04;35.14;99063.97;4587145;27;20040;-58
2023/12/10 06:04:41;;;;;;;2.05;0.70;;;;;;;21.03;34.62;99059.47;4587156;27;20634;-57
2023/12/10 06:06:51;;;;;;;2.00;0.88;;;;;;;21.04;34.74;99068.91;4590731;27;20071;-56
2023/12/10 06:09:02;;;;;;;2.70;0.88;;;;;;;21.05;35.01;99059.88;4589574;27;20044;-57
2023/12/10 06:11:12;;;;;;;2.30;1.10;;;;;;;21.04;34.92;99063.16;4588684;27;20039;-58
2023/12/10 06:13:23;;;;;;;1.85;0.90;;;;;;;21.03;34.83;99070.94;4589376;27;20068;-57
2023/12/10 06:15:33;;;;;;;2.50;0.80;;;;;;;21.03;34.76;99070.94;4588802;27;20056;-57
2023/12/10 06:17:44;;;;;;;1.35;0.80;;;;;;;21.03;34.81;99070.94;4589539;27;20483;-56
2023/12/10 06:19:54;;;;;;;1.73;0.70;;;;;;;21.03;35.32;99078.72;4590141;27;21134;-56
2023/12/10 06:22:05;;;;;;;2.80;1.00;;;;;;;21.03;35.14;99084.44;4590678;27;20040;-55
2023/12/10 06:24:15;;;;;;;2.33;1.08;;;;;;;21.03;35.18;99084.44;4589788;27;20048;-58
2023/12/10 06:26:25;;;;;;;2.22;0.80;;;;;;;21.01;34.97;99082.00;4590591;27;20033;-58
2023/12/10 06:28:36;;;;;;;2.53;0.80;;;;;;;21.03;35.07;99090.19;4591266;27;20185;-57
2023/12/10 06:30:46;;;;;;;2.25;0.85;;;;;;;21.02;34.91;99091.44;4588740;27;20085;-56
2023/12/10 06:32:57;;;;;;;1.88;0.93;;;;;;;21.03;35.16;99101.66;4589660;27;20534;-57
2023/12/10 06:35:08;;;;;;;2.10;1.00;;;;;;;21.03;35.30;99107.41;4588739;27;20504;-56
2023/12/10 06:37:18;;;;;;;2.30;1.02;;;;;;;21.03;34.96;99116.84;4587928;27;20044;-58
2023/12/10 06:39:29;;;;;;;1.85;0.90;;;;;;;21.02;35.20;99120.09;4590154;27;20036;-58
2023/12/10 06:41:40;;;;;;;2.63;1.02;;;;;;;21.02;35.07;99129.53;4590222;27;20086;-57
2023/12/10 06:43:50;;;;;;;2.08;0.90;;;;;;;21.03;35.25;99131.19;4589537;27;20040;-58
2023/12/10 06:46:01;;;;;;;1.75;0.80;;;;;;;21.03;35.58;99130.34;4588067;27;20052;-57
2023/12/10 06:48:11;;;;;;;1.98;1.00;;;;;;;21.02;35.26;99140.19;4589846;27;20111;-57
2023/12/10 06:50:22;;;;;;;2.15;1.10;;;;;;;21.01;35.40;99139.34;4589006;27;20403;-58
2023/12/10 06:52:32;;;;;;;2.88;0.98;;;;;;;21.01;35.04;99145.09;4589813;27;20037;-57
2023/12/10 06:54:43;;;;;;;2.60;1.08;;;;;;;21.00;35.16;99151.25;4590256;27;20122;-57
2023/12/10 06:56:54;;;;;;;2.53;0.80;;;;;;;21.02;34.93;99141.03;4589339;27;20039;-57
2023/12/10 06:59:05;;;;;;;2.35;0.85;;;;;;;21.01;35.25;99150.84;4589126;27;20047;-58
2023/12/10 07:01:16;;;;;;;2.47;0.80;;;;;;;21.01;35.15;99145.09;4589833;27;20064;-58
2023/12/10 07:03:26;;;;;;;1.75;0.80;;;;;;;21.02;35.23;99145.94;4591109;27;20123;-56
2023/12/10 07:05:36;;;;;;;2.50;1.00;;;;;;;21.00;35.35;99149.19;4589027;27;20073;-58
2023/12/10 07:07:47;;;;;;;2.20;1.00;;;;;;;21.01;35.36;99150.03;4588383;27;20123;-58
2023/12/10 07:09:57;;;;;;;2.28;1.10;;;;;;;21.01;35.38;99139.34;4590520;27;20067;-57
2023/12/10 07:12:08;;;;;;;1.92;1.00;;;;;;;21.00;35.19;99152.06;4588562;27;20044;-58
2023/12/10 07:14:18;;;;;;;1.88;0.73;;;;;;;21.01;35.54;99153.69;4587719;27;20071;-58
2023/12/10 07:16:29;;;;;;;2.42;0.90;;;;;;;21.01;35.19;99150.03;4586978;27;20086;-58
2023/12/10 07:18:39;;;;;;;3.42;1.00;;;;;;;21.01;35.28;99167.25;4588528;27;20035;-58
2023/12/10 07:20:50;;;;;;;2.28;1.00;;;;;;;21.00;35.60;99163.53;4579716;27;20067;-56
2023/12/10 07:23:00;;;;;;;2.50;1.08;;;;;;;21.00;35.58;99159.84;4574429;27;20047;-56
2023/12/10 07:25:10;;;;;;;3.30;1.33;;;;;;;21.00;35.39;99169.28;4590819;27;20122;-55
2023/12/10 07:27:21;;;;;;;2.42;0.93;;;;;;;20.99;35.33;99164.78;4579734;27;20531;-56
2023/12/10 07:29:31;;;;;;;2.33;0.90;;;;;;;21.01;35.28;99164.38;4589382;27;20032;-55
2023/12/10 07:31:42;;;;;;;2.88;1.10;;;;;;;21.00;35.45;99177.06;4590135;27;20518;-56
2023/12/10 07:33:52;;;;;;;1.80;0.93;;;;;;;21.01;35.36;99172.97;4587918;27;20050;-56
2023/12/10 07:36:03;;;;;;;2.63;0.93;;;;;;;21.04;35.25;99181.56;4589240;27;20093;-57
2023/12/10 07:38:13;;;;;;;2.17;1.05;;;;;;;21.04;35.03;99193.06;4589909;27;20053;-57
2023/12/10 07:40:24;;;;;;;2.10;1.00;;;;;;;21.05;35.14;99191.00;4590487;27;20039;-56
2023/12/10 07:42:34;;;;;;;1.45;0.80;;;;;;;21.04;34.88;99201.66;4589023;27;20069;-56
2023/12/10 07:44:45;;;;;;;2.53;0.90;;;;;;;21.00;35.02;99195.09;4588344;27;20051;-55
2023/12/10 07:46:56;;;;;;;1.40;0.80;;;;;;;21.04;34.56;99206.59;4587709;27;20086;-55
2023/12/10 07:49:07;;;;;;;1.63;0.82;;;;;;;21.05;35.14;99213.97;4589995;27;20063;-55
2023/12/10 07:51:17;;;;;;;1.63;0.90;;;;;;;21.04;35.31;99212.34;4580432;27;20064;-53
2023/12/10 07:53:27;;;;;;;2.15;1.00;;;;;;;21.04;35.06;99201.66;4588299;27;20058;-54
2023/12/10 07:55:38;;;;;;;2.20;0.90;;;;;;;21.04;34.98;99218.88;4571904;27;20048;-57
2023/12/10 07:57:48;;;;;;;1.48;1.00;;;;;;;21.05;34.67;99220.53;4589339;27;20408;-56
2023/12/10 07:59:59;;;;;;;1.55;0.80;;;;;;;21.04;35.19;99221.75;4589664;27;20050;-55
2023/12/10 08:02:09;;;;;;;2.72;1.00;;;;;;;21.05;35.08;99226.28;4588778;27;20032;-56
2023/12/10 08:04:20;;;;;;;1.95;0.90;;;;;;;21.05;34.77;99226.28;4591970;27;20172;-56
2023/12/10 08:06:30;;;;;;;1.83;0.70;;;;;;;21.07;35.13;99234.47;4588350;27;20115;-53
2023/12/10 08:08:41;;;;;;;1.13;0.70;;;;;;;21.07;35.02;99229.56;4591437;27;20043;-56
2023/12/10 08:10:51;;;;;;;1.85;0.73;;;;;;;21.09;34.93;99237.78;4589877;27;20032;-54
2023/12/10 08:13:02;;;;;;;1.50;0.70;;;;;;;21.08;34.93;99241.84;4588306;27;20028;-56
2023/12/10 08:15:12;;;;;;;2.67;0.90;;;;;;;21.07;34.97;99241.03;4589858;27;20072;-55
2023/12/10 08:17:23;;;;;;;2.17;0.90;;;;;;;21.07;35.23;99232.44;4589473;27;20079;-55
2023/12/10 08:19:33;;;;;;;2.33;0.80;;;;;;;21.08;34.76;99236.09;4590079;27;20484;-54
2023/12/10 08:24:26;;;;;;;2.60;1.10;;;;;;;21.06;34.96;99245.13;4591279;27;20816;-56
2023/12/10 08:26:37;;;;;;;2.65;1.08;;;;;;;21.08;34.76;99244.72;4589204;27;20636;-56
2023/12/10 08:28:48;;;;;;;2.20;1.00;;;;;;;21.06;34.67;99250.06;4588663;27;20681;-55
2023/12/10 08:30:58;;;;;;;1.88;0.90;;;;;;;21.08;34.71;99262.75;4589495;27;20075;-55
2023/12/10 08:33:09;;;;;;;2.05;0.93;;;;;;;21.08;34.88;99265.63;4589352;27;20070;-56
2023/12/10 08:35:19;;;;;;;2.00;0.90;;;;;;;21.09;34.40;99278.72;4592345;27;20047;-55
2023/12/10 08:37:30;;;;;;;2.08;0.95;;;;;;;21.09;34.67;99275.88;4587308;27;20154;-55
2023/12/10 08:39:42;;;;;;;2.60;1.05;;;;;;;21.11;34.66;99289.81;4571788;27;20944;-54
2023/12/10 08:41:52;;;;;;;1.77;0.85;;;;;;;21.07;34.58;99291.84;4589610;27;20112;-55
2023/12/10 08:44:03;;;;;;;2.53;0.93;;;;;;;21.10;34.67;99291.88;4589198;27;20040;-57
2023/12/10 08:46:13;;;;;;;1.67;0.75;;;;;;;21.11;34.19;99287.78;4574944;27;20486;-56
2023/12/10 08:48:24;;;;;;;1.80;0.82;;;;;;;21.13;34.39;99293.94;4587892;27;20492;-55
2023/12/10 08:50:35;;;;;;;3.03;1.10;;;;;;;21.14;34.51;99291.88;4585634;27;20465;-57
2023/12/10 08:52:46;;;;;;;2.72;1.05;;;;;;;21.13;34.10;99302.53;4589646;27;20118;-54
2023/12/10 08:54:57;;;;;;;1.38;0.90;;;;;;;21.13;34.48;99305.41;4587524;27;20044;-56
2023/12/10 08:57:08;;;;;;;2.13;1.08;;;;;;;21.12;34.08;99300.06;4585710;27;20056;-56
2023/12/10 08:59:19;;;;;;;1.83;1.00;;;;;;;21.12;33.94;99306.63;4589474;27;20031;-55
2023/12/10 09:01:29;;;;;;;1.98;1.00;;;;;;;21.14;33.83;99315.66;4588692;27;20046;-60
2023/12/10 09:03:42;;;;;;;2.45;0.90;;;;;;;21.15;33.61;99328.78;4577893;27;20039;-55
2023/12/10 09:05:52;;;;;;;2.00;0.95;;;;;;;21.15;33.54;99328.78;4587180;27;20044;-56
2023/12/10 09:08:04;;;;;;;2.05;1.00;;;;;;;21.16;33.55;99327.56;4588281;27;20044;-55
2023/12/10 09:10:14;;;;;;;2.13;0.90;;;;;;;21.17;33.65;99342.75;4574126;27;20029;-57
2023/12/10 09:12:27;;;;;;;2.00;1.08;;;;;;;21.16;33.68;99341.06;4588240;27;20036;-55
2023/12/10 09:14:37;;;;;;;2.08;1.13;;;;;;;21.15;33.77;99343.13;4589458;27;20027;-57
2023/12/10 09:16:48;;;;;;;2.10;0.90;;;;;;;21.15;33.63;99343.13;4587721;27;20036;-58
2023/12/10 09:18:58;;;;;;;1.77;1.00;;;;;;;21.13;33.49;99348.44;4572510;27;20151;-60
2023/12/10 09:21:09;;;;;;;2.58;1.13;;;;;;;21.15;33.77;99357.50;4568958;27;20103;-59
2023/12/10 09:23:19;;;;;;;2.70;1.20;;;;;;;21.15;33.19;99356.66;4588257;27;20039;-59
2023/12/10 09:25:30;;;;;;;2.38;0.98;;;;;;;21.15;33.36;99368.97;4571095;27;20489;-59
2023/12/10 09:27:40;;;;;;;1.80;0.90;;;;;;;21.16;33.50;99378.38;4588706;27;20036;-58
2023/12/10 09:29:51;;;;;;;2.53;1.00;;;;;;;21.17;33.33;99389.44;4590225;27;20036;-59
2023/12/10 09:32:02;;;;;;;2.50;1.20;;;;;;;21.17;33.54;99395.19;4588040;27;20032;-59
2023/12/10 09:34:12;;;;;;;2.20;0.85;;;;;;;21.17;33.33;99398.06;4588846;27;20050;-59
2023/12/10 09:36:23;;;;;;;1.90;1.00;;;;;;;21.17;33.52;99397.25;4589845;27;20510;-59
2023/12/10 09:38:33;;;;;;;2.95;1.10;;;;;;;21.18;33.67;99390.28;4589667;27;20096;-59
2023/12/10 09:40:44;;;;;;;2.78;1.02;;;;;;;21.17;33.32;99397.25;4591392;27;20063;-58
2023/12/10 09:42:54;;;;;;;2.70;1.30;;;;;;;21.18;33.88;99408.34;4590989;27;20039;-59
2023/12/10 09:45:06;;;;;;;2.58;1.42;;;;;;;21.18;33.31;99404.63;4592813;27;20180;-59
2023/12/10 09:47:19;;;;;;;2.00;1.00;;;;;;;21.15;33.75;99403.41;4590392;27;20063;-58
2023/12/10 09:49:33;;;;;;;3.03;1.48;;;;;;;21.17;33.90;99406.66;4591273;27;20626;-59
2023/12/10 09:51:43;;;;;;;4.28;2.40;;;;;;;21.19;33.88;99427.19;4592526;27;20031;-58
2023/12/10 09:53:54;;;;;;;3.00;1.95;;;;;;;21.18;34.00;99419.81;4592887;27;20031;-59
2023/12/10 09:56:04;;;;;;;2.13;1.20;;;;;;;21.19;33.82;99418.56;4590146;27;20123;-59
2023/12/10 09:58:15;;;;;;;1.90;1.05;;;;;;;21.19;33.83;99421.44;4591783;27;20518;-60
2023/12/10 10:00:26;;;;;;;2.28;1.40;;;;;;;21.20;34.28;99428.81;4590033;27;20038;-58
2023/12/10 10:02:36;;;;;;;3.25;1.40;;;;;;;21.18;34.18;99444.81;4590803;27;20480;-59
2023/12/10 10:04:47;;;;;;;1.95;0.98;;;;;;;21.20;33.77;99437.44;4593267;27;20068;-59
2023/12/10 10:06:57;;;;;;;2.30;0.90;;;;;;;21.21;34.34;99439.09;4590283;27;20044;-59
2023/12/10 10:09:08;;;;;;;3.17;1.27;;;;;;;21.19;34.22;99438.66;4581104;27;20074;-57
2023/12/10 10:11:18;;;;;;;1.90;0.98;;;;;;;21.19;34.46;99438.66;4591771;27;20114;-58
2023/12/10 10:13:29;;;;;;;3.15;1.27;;;;;;;21.19;33.97;99432.94;4592946;27;20045;-59
2023/12/10 10:15:40;;;;;;;2.50;1.17;;;;;;;21.18;34.54;99448.50;4591988;27;20048;-59
2023/12/10 10:17:50;;;;;;;1.55;0.90;;;;;;;21.18;34.55;99453.41;4589870;27;20035;-59